Time;durP1;ratioP1;P1;durP2;ratioP2;P2;SDS_P1;SDS_P2;PMS_P1;PMS_P2;Temp;Humidity;BMP_temperature;BMP_pressure;BME280_temperature;BME280_humidity;BME280_pressure;Samples;Min_cycle;Max_cycle;Signal;HPM_P1;HPM_P2
2024/03/15 00:00:51;;;;;;;13.05;8.13;;;;;;;;;;5089279;28;20028;-73
2024/03/15 00:03:17;;;;;;;14.00;7.25;;;;;;;;;;5055826;28;20021;-72
2024/03/15 00:05:43;;;;;;;10.52;7.88;;;;;;;;;;5092083;28;20462;-71
2024/03/15 00:08:10;;;;;;;10.65;7.60;;;;;;;;;;5070437;28;20036;-72
2024/03/15 00:10:36;;;;;;;12.88;7.50;;;;;;;;;;5054852;28;21986;-72
2024/03/15 00:13:03;;;;;;;15.88;7.80;;;;;;;;;;5073772;28;20023;-73
2024/03/15 00:15:29;;;;;;;15.25;8.98;;;;;;;;;;5078939;28;20435;-71
2024/03/15 00:17:56;;;;;;;11.57;7.97;;;;;;;;;;5093337;28;20027;-74
2024/03/15 00:20:22;;;;;;;11.02;7.75;;;;;;;;;;5064138;28;20034;-72
2024/03/15 00:22:50;;;;;;;11.30;7.65;;;;;;;;;;5073036;28;20112;-72
2024/03/15 00:25:18;;;;;;;16.08;8.10;;;;;;;;;;5072781;28;20043;-72
2024/03/15 00:27:44;;;;;;;10.40;7.57;;;;;;;;;;5082775;28;20024;-72
2024/03/15 00:30:11;;;;;;;15.85;8.00;;;;;;;;;;5075688;28;20032;-73
2024/03/15 00:32:37;;;;;;;11.07;7.03;;;;;;;;;;5075193;28;20039;-72
2024/03/15 00:35:03;;;;;;;11.13;7.63;;;;;;;;;;5082180;28;20028;-72
2024/03/15 00:37:29;;;;;;;16.52;6.50;;;;;;;;;;5091975;28;20161;-72
2024/03/15 00:39:55;;;;;;;9.02;7.03;;;;;;;;;;5072558;28;20090;-73
2024/03/15 00:42:21;;;;;;;8.77;6.75;;;;;;;;;;5067108;28;20028;-73
2024/03/15 00:44:48;;;;;;;10.80;7.53;;;;;;;;;;5074174;28;20039;-72
2024/03/15 00:47:15;;;;;;;8.52;6.97;;;;;;;;;;5074365;28;20118;-72
2024/03/15 00:49:41;;;;;;;12.93;7.38;;;;;;;;;;5090827;28;20057;-73
2024/03/15 00:52:07;;;;;;;8.70;6.20;;;;;;;;;;5081503;28;20421;-73
2024/03/15 00:54:34;;;;;;;11.68;6.75;;;;;;;;;;5092758;28;20432;-73
2024/03/15 00:57:01;;;;;;;12.25;6.72;;;;;;;;;;5083335;28;20412;-73
2024/03/15 00:59:27;;;;;;;10.13;6.75;;;;;;;;;;5075400;28;20099;-72
2024/03/15 01:01:53;;;;;;;9.38;5.82;;;;;;;;;;5092163;28;20032;-72
2024/03/15 01:04:19;;;;;;;11.30;6.30;;;;;;;;;;5075507;28;20027;-72
2024/03/15 01:06:46;;;;;;;9.43;7.28;;;;;;;;;;5081897;28;20103;-72
2024/03/15 01:09:13;;;;;;;12.65;5.88;;;;;;;;;;5092197;28;20035;-73
2024/03/15 01:11:39;;;;;;;8.57;6.70;;;;;;;;;;5072729;28;20090;-72
2024/03/15 01:14:05;;;;;;;12.32;6.05;;;;;;;;;;5066185;28;20032;-73
2024/03/15 01:16:31;;;;;;;8.68;6.88;;;;;;;;;;5090627;28;20454;-71
2024/03/15 01:18:58;;;;;;;11.55;6.65;;;;;;;;;;5087890;28;20025;-72
2024/03/15 01:21:26;;;;;;;11.85;6.55;;;;;;;;;;5085428;28;20055;-73
2024/03/15 01:23:52;;;;;;;8.13;6.07;;;;;;;;;;5090860;28;20028;-73
2024/03/15 01:26:18;;;;;;;8.70;6.10;;;;;;;;;;5072768;28;20025;-73
2024/03/15 01:28:44;;;;;;;8.93;6.63;;;;;;;;;;5084901;28;20031;-74
2024/03/15 01:31:10;;;;;;;7.05;6.30;;;;;;;;;;5094040;28;20031;-71
2024/03/15 01:33:36;;;;;;;8.70;5.50;;;;;;;;;;5075016;28;20024;-73
2024/03/15 01:36:03;;;;;;;7.93;6.22;;;;;;;;;;5075920;28;20024;-72
2024/03/15 01:38:31;;;;;;;8.75;6.28;;;;;;;;;;5075659;28;20025;-73
2024/03/15 01:40:58;;;;;;;7.53;6.10;;;;;;;;;;5059595;28;20510;-74
2024/03/15 01:43:24;;;;;;;7.78;6.22;;;;;;;;;;5076198;28;20051;-73
2024/03/15 01:45:50;;;;;;;8.40;5.15;;;;;;;;;;5071754;28;20028;-72
2024/03/15 01:48:17;;;;;;;10.55;7.03;;;;;;;;;;5060148;28;20020;-71
2024/03/15 01:50:43;;;;;;;8.85;6.00;;;;;;;;;;5074215;28;20040;-72
2024/03/15 01:53:10;;;;;;;11.98;6.82;;;;;;;;;;5065080;28;20099;-74
2024/03/15 01:55:36;;;;;;;8.15;6.35;;;;;;;;;;5074755;28;20020;-73
2024/03/15 01:58:02;;;;;;;11.18;7.50;;;;;;;;;;5073869;28;20027;-73
2024/03/15 02:00:28;;;;;;;10.85;5.82;;;;;;;;;;5078584;28;20432;-73
2024/03/15 02:02:56;;;;;;;7.93;5.63;;;;;;;;;;5054451;28;20021;-73
2024/03/15 02:05:22;;;;;;;7.50;5.90;;;;;;;;;;5074805;28;20028;-73
2024/03/15 02:07:50;;;;;;;8.38;6.00;;;;;;;;;;5078910;28;20411;-73
2024/03/15 02:10:16;;;;;;;9.30;6.18;;;;;;;;;;5075825;28;20081;-72
2024/03/15 02:12:42;;;;;;;7.07;6.28;;;;;;;;;;5059048;28;20051;-73
2024/03/15 02:15:10;;;;;;;10.73;6.30;;;;;;;;;;5088229;28;20024;-72
2024/03/15 02:17:36;;;;;;;6.20;5.43;;;;;;;;;;5087638;28;20063;-73
2024/03/15 02:20:05;;;;;;;8.30;6.53;;;;;;;;;;5060356;28;20025;-73
2024/03/15 02:22:31;;;;;;;10.32;6.15;;;;;;;;;;5066144;28;20059;-72
2024/03/15 02:24:57;;;;;;;7.38;5.97;;;;;;;;;;5090663;28;20028;-73
2024/03/15 02:27:24;;;;;;;10.60;6.28;;;;;;;;;;5095105;28;20650;-72
2024/03/15 02:29:52;;;;;;;10.73;6.40;;;;;;;;;;5096680;28;20032;-71
2024/03/15 02:32:18;;;;;;;7.82;5.97;;;;;;;;;;5084772;28;20028;-72
2024/03/15 02:34:44;;;;;;;8.07;5.80;;;;;;;;;;5077781;28;20046;-72
2024/03/15 02:37:10;;;;;;;12.20;6.20;;;;;;;;;;5077679;28;20021;-72
2024/03/15 02:39:36;;;;;;;9.32;6.35;;;;;;;;;;5079069;28;20024;-71
2024/03/15 02:42:06;;;;;;;8.15;6.68;;;;;;;;;;5080279;28;20032;-72
2024/03/15 02:44:33;;;;;;;9.10;5.75;;;;;;;;;;5059911;28;20029;-73
2024/03/15 02:46:59;;;;;;;10.07;6.75;;;;;;;;;;5096976;28;20028;-72
2024/03/15 02:49:25;;;;;;;11.05;6.65;;;;;;;;;;5073350;28;20029;-73
2024/03/15 02:51:54;;;;;;;7.57;6.63;;;;;;;;;;5077565;28;20036;-73
2024/03/15 02:54:20;;;;;;;10.48;6.72;;;;;;;;;;5092699;28;20069;-73
2024/03/15 02:56:46;;;;;;;13.52;7.40;;;;;;;;;;5070560;28;20028;-73
2024/03/15 02:59:12;;;;;;;11.30;6.32;;;;;;;;;;5056184;28;20028;-72
2024/03/15 03:01:38;;;;;;;13.35;6.05;;;;;;;;;;5089365;28;20032;-72
2024/03/15 03:04:05;;;;;;;7.25;6.05;;;;;;;;;;5091017;28;20106;-72
2024/03/15 03:06:32;;;;;;;10.05;7.00;;;;;;;;;;5076498;28;20048;-71
2024/03/15 03:08:59;;;;;;;7.72;6.30;;;;;;;;;;5092198;28;20115;-73
2024/03/15 03:11:25;;;;;;;8.32;6.28;;;;;;;;;;5099328;28;20024;-73
2024/03/15 03:13:51;;;;;;;9.52;6.55;;;;;;;;;;5083083;28;20016;-72
2024/03/15 03:16:20;;;;;;;7.13;6.15;;;;;;;;;;5100087;28;20122;-73
2024/03/15 03:18:47;;;;;;;7.43;6.40;;;;;;;;;;5090549;28;20032;-72
2024/03/15 03:21:13;;;;;;;10.93;6.00;;;;;;;;;;5082713;28;20028;-72
2024/03/15 03:23:39;;;;;;;8.98;5.75;;;;;;;;;;5084118;28;20027;-72
2024/03/15 03:26:10;;;;;;;8.05;6.43;;;;;;;;;;5102993;28;20041;-73
2024/03/15 03:28:36;;;;;;;8.07;5.00;;;;;;;;;;5080807;28;20119;-71
2024/03/15 03:31:02;;;;;;;7.60;6.07;;;;;;;;;;5082852;28;20028;-72
2024/03/15 03:33:28;;;;;;;7.28;5.28;;;;;;;;;;5092223;28;20093;-72
2024/03/15 03:35:56;;;;;;;8.80;5.90;;;;;;;;;;5082081;28;20044;-72
2024/03/15 03:38:22;;;;;;;9.63;5.93;;;;;;;;;;5085735;28;20098;-73
2024/03/15 03:40:48;;;;;;;7.13;5.70;;;;;;;;;;5092689;28;20499;-73
2024/03/15 03:43:14;;;;;;;9.48;5.38;;;;;;;;;;5099221;28;20028;-71
2024/03/15 03:45:43;;;;;;;9.20;5.63;;;;;;;;;;5097277;28;20062;-71
2024/03/15 03:48:09;;;;;;;7.47;5.50;;;;;;;;;;5085390;28;20036;-72
2024/03/15 03:50:35;;;;;;;8.20;6.45;;;;;;;;;;5078565;28;20028;-71
2024/03/15 03:53:01;;;;;;;7.40;5.45;;;;;;;;;;5082018;28;20021;-72
2024/03/15 03:55:27;;;;;;;6.35;5.45;;;;;;;;;;5089360;28;20021;-72
2024/03/15 03:57:55;;;;;;;8.23;5.80;;;;;;;;;;5082879;28;20395;-73
2024/03/15 04:00:21;;;;;;;6.70;4.97;;;;;;;;;;5081290;28;20319;-72
2024/03/15 04:02:48;;;;;;;10.60;5.75;;;;;;;;;;5064682;28;20032;-72
2024/03/15 04:05:15;;;;;;;7.13;5.40;;;;;;;;;;5081710;28;20088;-72
2024/03/15 04:07:41;;;;;;;6.93;5.15;;;;;;;;;;5076945;28;20032;-72
2024/03/15 04:10:08;;;;;;;10.68;5.20;;;;;;;;;;5077596;28;20097;-72
2024/03/15 04:12:35;;;;;;;7.18;5.15;;;;;;;;;;5065575;28;20039;-72
2024/03/15 04:15:05;;;;;;;8.45;5.30;;;;;;;;;;5094407;28;20028;-71
2024/03/15 04:17:31;;;;;;;8.35;5.75;;;;;;;;;;5075888;28;20020;-73
2024/03/15 04:19:57;;;;;;;8.65;5.57;;;;;;;;;;5084332;28;20032;-73
2024/03/15 04:22:25;;;;;;;6.60;5.75;;;;;;;;;;5079940;28;20053;-72
2024/03/15 04:24:52;;;;;;;7.40;5.30;;;;;;;;;;5079025;28;20107;-73
2024/03/15 04:27:18;;;;;;;10.05;5.78;;;;;;;;;;5081145;28;20153;-73
2024/03/15 04:29:44;;;;;;;7.25;5.43;;;;;;;;;;5075666;28;20051;-73
2024/03/15 04:32:10;;;;;;;9.45;5.35;;;;;;;;;;5074437;28;20024;-72
2024/03/15 04:34:41;;;;;;;8.50;5.70;;;;;;;;;;5091176;28;20019;-72
2024/03/15 04:37:10;;;;;;;6.55;5.20;;;;;;;;;;5092548;28;20024;-71
2024/03/15 04:39:39;;;;;;;8.15;5.28;;;;;;;;;;5059441;28;20382;-73
2024/03/15 04:42:05;;;;;;;11.02;6.43;;;;;;;;;;5079447;28;20105;-71
2024/03/15 04:44:33;;;;;;;6.03;5.07;;;;;;;;;;5077370;28;20115;-71
2024/03/15 04:47:00;;;;;;;11.13;6.30;;;;;;;;;;5056600;28;20067;-72
2024/03/15 04:49:28;;;;;;;7.22;5.20;;;;;;;;;;5077315;28;20017;-73
2024/03/15 04:51:54;;;;;;;9.10;6.28;;;;;;;;;;5082471;28;20073;-73
2024/03/15 04:54:21;;;;;;;7.22;5.38;;;;;;;;;;5094753;28;20035;-73
2024/03/15 04:56:47;;;;;;;8.07;5.50;;;;;;;;;;5075778;28;20020;-73
2024/03/15 04:59:13;;;;;;;7.10;5.93;;;;;;;;;;5082841;28;20029;-74
2024/03/15 05:01:39;;;;;;;9.27;6.55;;;;;;;;;;5079081;28;20027;-73
2024/03/15 05:04:05;;;;;;;8.80;6.88;;;;;;;;;;5075611;28;20027;-72
2024/03/15 05:06:31;;;;;;;8.23;6.03;;;;;;;;;;5092472;28;20111;-73
2024/03/15 05:08:58;;;;;;;8.02;5.57;;;;;;;;;;5094027;28;20029;-73
2024/03/15 05:11:24;;;;;;;9.55;6.15;;;;;;;;;;5078697;28;20051;-73
2024/03/15 05:13:50;;;;;;;9.52;5.93;;;;;;;;;;5080547;28;20021;-73
2024/03/15 05:16:17;;;;;;;7.70;5.53;;;;;;;;;;5063456;28;20025;-73
2024/03/15 05:18:43;;;;;;;16.55;6.05;;;;;;;;;;5080207;28;20028;-73
2024/03/15 05:21:12;;;;;;;7.47;6.53;;;;;;;;;;5098464;28;20067;-72
2024/03/15 05:23:38;;;;;;;7.10;5.95;;;;;;;;;;5080537;28;20103;-72
2024/03/15 05:26:08;;;;;;;7.60;5.55;;;;;;;;;;5098154;28;20103;-72
2024/03/15 05:28:34;;;;;;;9.48;6.20;;;;;;;;;;5096944;28;20027;-73
2024/03/15 05:31:03;;;;;;;10.60;6.13;;;;;;;;;;5096825;28;20051;-72
2024/03/15 05:33:29;;;;;;;7.70;5.85;;;;;;;;;;5095340;28;20016;-73
2024/03/15 05:35:55;;;;;;;7.30;6.15;;;;;;;;;;5091255;28;20092;-73
2024/03/15 05:38:21;;;;;;;9.10;6.38;;;;;;;;;;5085614;28;20046;-72
2024/03/15 05:40:48;;;;;;;10.40;5.68;;;;;;;;;;5078137;28;20115;-73
2024/03/15 05:43:14;;;;;;;6.70;5.38;;;;;;;;;;5078457;28;20024;-73
2024/03/15 05:45:41;;;;;;;6.78;6.07;;;;;;;;;;5074228;28;20048;-72
2024/03/15 05:48:07;;;;;;;7.68;5.68;;;;;;;;;;5076399;28;20099;-73
2024/03/15 05:50:33;;;;;;;7.10;5.32;;;;;;;;;;5075549;28;20016;-73
2024/03/15 05:53:00;;;;;;;10.30;5.47;;;;;;;;;;5065754;28;20078;-75
2024/03/15 05:55:31;;;;;;;9.25;6.07;;;;;;;;;;5075709;28;20020;-73
2024/03/15 05:57:57;;;;;;;5.93;5.40;;;;;;;;;;5072138;28;20020;-74
2024/03/15 06:00:23;;;;;;;9.35;5.60;;;;;;;;;;5073960;28;20051;-74
2024/03/15 06:02:51;;;;;;;8.15;5.65;;;;;;;;;;5075766;28;20013;-75
2024/03/15 06:05:22;;;;;;;13.25;6.53;;;;;;;;;;5071477;28;20024;-75
2024/03/15 06:07:48;;;;;;;9.80;6.15;;;;;;;;;;5073858;28;20017;-73
2024/03/15 06:10:14;;;;;;;9.45;5.35;;;;;;;;;;5072929;28;20025;-75
2024/03/15 06:12:40;;;;;;;6.93;5.18;;;;;;;;;;5054430;28;20108;-74
2024/03/15 06:15:11;;;;;;;10.15;6.07;;;;;;;;;;5072722;28;20052;-74
2024/03/15 06:17:37;;;;;;;7.35;5.50;;;;;;;;;;5073815;28;20051;-72
2024/03/15 06:20:03;;;;;;;13.18;5.53;;;;;;;;;;5056070;28;20107;-72
2024/03/15 06:22:30;;;;;;;14.30;6.80;;;;;;;;;;5073444;28;20031;-72
2024/03/15 06:24:57;;;;;;;16.52;6.88;;;;;;;;;;5056530;28;20029;-74
2024/03/15 06:27:23;;;;;;;8.25;6.13;;;;;;;;;;5057859;28;20093;-73
2024/03/15 06:29:54;;;;;;;9.25;6.38;;;;;;;;;;5075229;28;20025;-73
2024/03/15 06:32:26;;;;;;;11.18;5.85;;;;;;;;;;5062076;28;20395;-73
2024/03/15 06:35:00;;;;;;;9.82;5.72;;;;;;;;;;5079506;28;20478;-72
2024/03/15 06:37:27;;;;;;;9.75;6.07;;;;;;;;;;5061593;28;20035;-67
2024/03/15 06:42:37;;;;;;;6.80;4.57;;;;;;;;;;5077600;28;20032;-69
2024/03/15 06:45:07;;;;;;;10.20;6.32;;;;;;;;;;5079596;28;20070;-68
2024/03/15 06:47:34;;;;;;;9.60;5.95;;;;;;;;;;5079855;28;20039;-64
2024/03/15 06:50:08;;;;;;;9.13;6.03;;;;;;;;;;5081465;28;20031;-71
2024/03/15 06:52:34;;;;;;;7.57;6.55;;;;;;;;;;5100659;28;20034;-73
2024/03/15 06:55:07;;;;;;;11.73;6.07;;;;;;;;;;5097948;28;20054;-71
2024/03/15 06:57:33;;;;;;;10.10;6.18;;;;;;;;;;5081581;28;20028;-73
2024/03/15 07:00:00;;;;;;;12.35;6.43;;;;;;;;;;5067695;28;20104;-75
2024/03/15 07:02:29;;;;;;;8.57;5.85;;;;;;;;;;5067446;28;20036;-74
2024/03/15 07:04:56;;;;;;;8.75;6.40;;;;;;;;;;5064590;28;20425;-75
2024/03/15 07:07:22;;;;;;;8.25;6.22;;;;;;;;;;5079541;28;20093;-73
2024/03/15 07:09:48;;;;;;;9.02;5.72;;;;;;;;;;5085503;28;20035;-74
2024/03/15 07:12:14;;;;;;;8.40;5.93;;;;;;;;;;5079831;28;20063;-73
2024/03/15 07:14:41;;;;;;;7.15;5.57;;;;;;;;;;5082625;28;20020;-75
2024/03/15 07:17:09;;;;;;;7.57;6.05;;;;;;;;;;5079414;28;20021;-74
2024/03/15 07:19:35;;;;;;;14.30;6.07;;;;;;;;;;5080635;28;20024;-72
2024/03/15 07:22:03;;;;;;;6.90;4.65;;;;;;;;;;5066010;28;20060;-73
2024/03/15 07:24:29;;;;;;;7.07;5.03;;;;;;;;;;5066784;28;20092;-73
2024/03/15 07:26:55;;;;;;;10.77;5.45;;;;;;;;;;5080574;28;20046;-73
2024/03/15 07:29:21;;;;;;;11.85;5.55;;;;;;;;;;5072470;28;20032;-74
2024/03/15 07:31:47;;;;;;;7.30;4.47;;;;;;;;;;5067895;28;20116;-73
2024/03/15 07:34:14;;;;;;;7.95;5.53;;;;;;;;;;5075078;28;20025;-74
2024/03/15 07:36:40;;;;;;;6.72;4.45;;;;;;;;;;5084657;28;20016;-76
2024/03/15 07:39:09;;;;;;;9.30;4.05;;;;;;;;;;5062996;28;20073;-75
2024/03/15 07:41:37;;;;;;;10.60;4.68;;;;;;;;;;5073341;28;20024;-74
2024/03/15 07:44:03;;;;;;;7.22;4.97;;;;;;;;;;5062926;28;20024;-75
2024/03/15 07:46:30;;;;;;;13.15;4.80;;;;;;;;;;5075917;28;20028;-73
2024/03/15 07:48:57;;;;;;;8.38;4.40;;;;;;;;;;5075584;28;20079;-74
2024/03/15 07:51:24;;;;;;;8.35;4.47;;;;;;;;;;5057874;28;20028;-73
2024/03/15 07:53:50;;;;;;;10.43;4.25;;;;;;;;;;5073505;28;20375;-74
2024/03/15 07:56:16;;;;;;;7.22;4.32;;;;;;;;;;5095556;28;20024;-75
2024/03/15 07:58:43;;;;;;;11.50;4.38;;;;;;;;;;5096288;28;20031;-72
2024/03/15 08:01:09;;;;;;;8.85;4.53;;;;;;;;;;5096431;28;20028;-75
2024/03/15 08:03:35;;;;;;;5.22;3.95;;;;;;;;;;5082126;28;20032;-72
2024/03/15 08:06:05;;;;;;;6.80;3.88;;;;;;;;;;5058758;28;20033;-74
2024/03/15 08:08:31;;;;;;;5.95;3.97;;;;;;;;;;5078267;28;20020;-75
2024/03/15 08:10:57;;;;;;;6.07;4.18;;;;;;;;;;5062245;28;20407;-75
2024/03/15 08:13:25;;;;;;;9.00;4.47;;;;;;;;;;5081429;28;20387;-71
2024/03/15 08:16:41;;;;;;;9.95;4.35;;;;;;;;;;5071758;28;20115;-75
2024/03/15 08:18:48;;;;;;;4.75;3.88;;;;;;;;;;5065544;28;20039;-73
2024/03/15 08:21:15;;;;;;;5.57;4.10;;;;;;;;;;5075747;28;20040;-74
2024/03/15 08:23:44;;;;;;;7.57;4.82;;;;;;;;;;5076538;28;20059;-72
2024/03/15 08:26:12;;;;;;;7.18;4.35;;;;;;;;;;5077214;28;20021;-74
2024/03/15 08:28:40;;;;;;;7.10;4.43;;;;;;;;;;5085240;28;20024;-73
2024/03/15 08:31:06;;;;;;;9.75;4.20;;;;;;;;;;5074828;28;20028;-73
2024/03/15 08:33:32;;;;;;;10.55;4.70;;;;;;;;;;5077167;28;20031;-73
2024/03/15 08:36:00;;;;;;;6.93;3.63;;;;;;;;;;5096594;28;20577;-75
2024/03/15 08:38:26;;;;;;;6.43;4.13;;;;;;;;;;5078708;28;20020;-75
2024/03/15 08:40:52;;;;;;;7.15;4.68;;;;;;;;;;5078525;28;20118;-74
2024/03/15 08:43:19;;;;;;;6.97;4.38;;;;;;;;;;5063607;28;20040;-73
2024/03/15 08:45:49;;;;;;;8.68;4.50;;;;;;;;;;5079902;28;20024;-75
2024/03/15 08:48:17;;;;;;;6.20;4.60;;;;;;;;;;5061065;28;20024;-72
2024/03/15 08:50:46;;;;;;;8.35;4.32;;;;;;;;;;5093594;28;20074;-74
2024/03/15 08:53:12;;;;;;;7.50;4.38;;;;;;;;;;5092504;28;20031;-74
2024/03/15 08:55:41;;;;;;;12.30;4.65;;;;;;;;;;5096483;28;20529;-73
2024/03/15 08:58:07;;;;;;;5.65;4.50;;;;;;;;;;5096262;28;20035;-73
2024/03/15 09:00:33;;;;;;;13.40;4.80;;;;;;;;;;5078535;28;20122;-74
2024/03/15 09:02:59;;;;;;;12.73;5.82;;;;;;;;;;5096134;28;20020;-75
2024/03/15 09:05:25;;;;;;;7.90;4.47;;;;;;;;;;5061265;28;20540;-74
2024/03/15 09:07:51;;;;;;;7.53;4.72;;;;;;;;;;5056730;28;20398;-73
2024/03/15 09:10:18;;;;;;;7.45;4.85;;;;;;;;;;5055576;28;20466;-74
2024/03/15 09:12:44;;;;;;;13.38;3.83;;;;;;;;;;5053696;28;20037;-75
2024/03/15 09:15:18;;;;;;;7.20;4.32;;;;;;;;;;5073397;28;20124;-74
2024/03/15 09:17:44;;;;;;;8.23;3.80;;;;;;;;;;5054500;28;20070;-73
2024/03/15 09:22:42;;;;;;;6.63;3.95;;;;;;;;;;5081296;28;20036;-72
2024/03/15 09:25:18;;;;;;;11.02;3.75;;;;;;;;;;5075839;28;20032;-73
2024/03/15 09:27:45;;;;;;;6.40;4.13;;;;;;;;;;5056285;28;20033;-74
2024/03/15 09:30:18;;;;;;;7.28;3.85;;;;;;;;;;5058156;28;20029;-74
2024/03/15 09:32:45;;;;;;;7.53;4.70;;;;;;;;;;5071585;28;20382;-73
2024/03/15 09:35:14;;;;;;;8.85;4.53;;;;;;;;;;5055726;28;20016;-72
2024/03/15 09:37:49;;;;;;;9.57;3.92;;;;;;;;;;5073446;28;20023;-73
2024/03/15 09:40:15;;;;;;;7.07;3.88;;;;;;;;;;5072646;28;20031;-72
2024/03/15 09:42:47;;;;;;;12.43;4.03;;;;;;;;;;5074935;28;20382;-73
2024/03/15 09:45:18;;;;;;;9.90;3.72;;;;;;;;;;5056240;28;20060;-72
2024/03/15 09:47:45;;;;;;;5.75;3.80;;;;;;;;;;5076128;28;20162;-74
2024/03/15 09:50:21;;;;;;;6.78;4.18;;;;;;;;;;5057931;28;20036;-73
2024/03/15 09:52:49;;;;;;;4.45;3.28;;;;;;;;;;5071898;28;20024;-73
2024/03/15 09:55:19;;;;;;;4.07;3.55;;;;;;;;;;5077328;28;20153;-73
2024/03/15 09:57:46;;;;;;;6.45;3.40;;;;;;;;;;5087695;28;20074;-73
2024/03/15 10:00:22;;;;;;;5.35;3.70;;;;;;;;;;5071919;28;20095;-74
2024/03/15 10:02:49;;;;;;;9.60;5.05;;;;;;;;;;5075707;28;20058;-72
2024/03/15 10:05:15;;;;;;;7.07;3.90;;;;;;;;;;5060643;28;20298;-74
2024/03/15 10:07:41;;;;;;;5.10;3.15;;;;;;;;;;5088745;28;20031;-73
2024/03/15 10:10:11;;;;;;;6.15;3.33;;;;;;;;;;5078164;28;20035;-74
2024/03/15 10:12:47;;;;;;;8.25;3.88;;;;;;;;;;5093455;28;20036;-73
2024/03/15 10:15:17;;;;;;;4.85;2.97;;;;;;;;;;5082747;28;20032;-74
2024/03/15 10:17:44;;;;;;;5.25;3.13;;;;;;;;;;5073847;28;20021;-73
2024/03/15 10:20:11;;;;;;;4.00;3.25;;;;;;;;;;5088732;28;20087;-74
2024/03/15 10:22:38;;;;;;;4.70;3.30;;;;;;;;;;5097879;28;20016;-72
2024/03/15 10:25:06;;;;;;;4.80;3.25;;;;;;;;;;5063148;28;20522;-75
2024/03/15 10:27:33;;;;;;;4.00;2.92;;;;;;;;;;5061092;28;20039;-74
2024/03/15 10:29:59;;;;;;;5.63;3.38;;;;;;;;;;5061037;28;20038;-73
2024/03/15 10:32:25;;;;;;;6.50;3.47;;;;;;;;;;5098775;28;20024;-74
2024/03/15 10:34:51;;;;;;;7.15;2.97;;;;;;;;;;5097281;28;20059;-74
2024/03/15 10:37:17;;;;;;;3.90;3.25;;;;;;;;;;5095185;28;20538;-74
2024/03/15 10:39:43;;;;;;;6.57;3.80;;;;;;;;;;5066876;28;20043;-72
2024/03/15 10:42:13;;;;;;;4.50;3.65;;;;;;;;;;5076246;28;20028;-73
2024/03/15 10:44:39;;;;;;;7.78;3.95;;;;;;;;;;5093530;28;20032;-75
2024/03/15 10:47:12;;;;;;;5.90;3.55;;;;;;;;;;5074354;28;20409;-76
2024/03/15 10:49:39;;;;;;;5.28;3.58;;;;;;;;;;5069454;28;20024;-74
2024/03/15 10:52:05;;;;;;;4.47;3.22;;;;;;;;;;5073236;28;20029;-74
2024/03/15 10:54:31;;;;;;;5.38;3.78;;;;;;;;;;5089236;28;20105;-75
2024/03/15 10:56:59;;;;;;;3.70;2.95;;;;;;;;;;5090805;28;20471;-73
2024/03/15 10:59:25;;;;;;;5.65;3.75;;;;;;;;;;5072959;28;20012;-74
2024/03/15 11:01:51;;;;;;;4.93;3.33;;;;;;;;;;5065138;28;20110;-72
2024/03/15 11:04:17;;;;;;;7.28;3.40;;;;;;;;;;5092634;28;20035;-73
2024/03/15 11:06:44;;;;;;;4.43;2.67;;;;;;;;;;5074658;28;20039;-73
2024/03/15 11:09:20;;;;;;;4.55;3.03;;;;;;;;;;5088725;28;20083;-73
2024/03/15 11:11:55;;;;;;;6.35;3.22;;;;;;;;;;5072679;28;20020;-73
2024/03/15 11:14:24;;;;;;;6.00;2.88;;;;;;;;;;5073205;28;20046;-75
2024/03/15 11:16:56;;;;;;;3.47;2.38;;;;;;;;;;5079530;28;20387;-73
2024/03/15 11:19:23;;;;;;;4.45;2.70;;;;;;;;;;5080138;28;20017;-74
2024/03/15 11:21:49;;;;;;;6.03;2.53;;;;;;;;;;5093298;28;20085;-73
2024/03/15 11:24:15;;;;;;;3.85;2.65;;;;;;;;;;5092105;28;20410;-75
2024/03/15 11:26:41;;;;;;;3.28;2.95;;;;;;;;;;5081132;28;20514;-73
2024/03/15 11:29:19;;;;;;;5.07;3.03;;;;;;;;;;5075511;28;20027;-73
2024/03/15 11:31:45;;;;;;;5.68;4.18;;;;;;;;;;5065067;28;20501;-73
2024/03/15 11:34:11;;;;;;;4.97;2.90;;;;;;;;;;5081247;28;20020;-72
2024/03/15 11:36:37;;;;;;;4.63;3.38;;;;;;;;;;5068837;28;20032;-75
2024/03/15 11:39:08;;;;;;;3.33;2.63;;;;;;;;;;5086124;28;20032;-74
2024/03/15 11:41:38;;;;;;;4.85;3.08;;;;;;;;;;5096329;28;20024;-75
2024/03/15 11:44:05;;;;;;;6.18;2.60;;;;;;;;;;5078850;28;20021;-73
2024/03/15 11:46:32;;;;;;;3.95;3.20;;;;;;;;;;5057766;28;20032;-74
2024/03/15 11:49:02;;;;;;;3.10;2.70;;;;;;;;;;5058330;28;20025;-75
2024/03/15 11:51:28;;;;;;;3.15;2.63;;;;;;;;;;5080074;28;20087;-74
2024/03/15 11:53:54;;;;;;;5.25;3.00;;;;;;;;;;5061398;28;20028;-74
2024/03/15 11:56:21;;;;;;;3.53;3.05;;;;;;;;;;5084033;28;20382;-74
2024/03/15 11:58:48;;;;;;;4.07;3.05;;;;;;;;;;5089132;28;20044;-72
2024/03/15 12:01:15;;;;;;;4.07;2.80;;;;;;;;;;5073138;28;20029;-73
2024/03/15 12:03:41;;;;;;;5.90;3.50;;;;;;;;;;5087008;28;20016;-73
2024/03/15 12:06:08;;;;;;;8.60;3.88;;;;;;;;;;5084806;28;20043;-73
2024/03/15 12:08:34;;;;;;;4.50;3.40;;;;;;;;;;5083429;28;20474;-76
2024/03/15 12:11:00;;;;;;;5.57;3.28;;;;;;;;;;5062885;28;20115;-73
2024/03/15 12:13:28;;;;;;;6.10;3.15;;;;;;;;;;5083434;28;20021;-73
2024/03/15 12:15:54;;;;;;;4.07;3.17;;;;;;;;;;5088099;28;20035;-73
2024/03/15 12:18:22;;;;;;;5.07;3.30;;;;;;;;;;5072994;28;20100;-74
2024/03/15 12:20:51;;;;;;;4.68;4.18;;;;;;;;;;5057191;28;20032;-73
2024/03/15 12:23:22;;;;;;;3.88;3.30;;;;;;;;;;5067417;28;20123;-73
2024/03/15 12:25:48;;;;;;;4.00;3.55;;;;;;;;;;5091682;28;20012;-73
2024/03/15 12:28:17;;;;;;;4.75;3.25;;;;;;;;;;5059061;28;20078;-73
2024/03/15 12:30:44;;;;;;;5.22;3.72;;;;;;;;;;5056629;28;20112;-74
2024/03/15 12:33:10;;;;;;;3.83;3.30;;;;;;;;;;5054491;28;20039;-74
2024/03/15 12:35:37;;;;;;;8.10;3.15;;;;;;;;;;5054177;28;20021;-74
2024/03/15 12:38:03;;;;;;;3.97;3.20;;;;;;;;;;5072482;28;20020;-74
2024/03/15 12:40:29;;;;;;;6.80;2.70;;;;;;;;;;5054177;28;20027;-74
2024/03/15 12:42:55;;;;;;;7.10;3.40;;;;;;;;;;5053451;28;20031;-72
2024/03/15 12:45:22;;;;;;;4.60;3.60;;;;;;;;;;5054743;28;20027;-74
2024/03/15 12:47:48;;;;;;;7.35;2.92;;;;;;;;;;5054192;28;20021;-73
2024/03/15 12:50:18;;;;;;;4.35;2.58;;;;;;;;;;5083189;28;20151;-73
2024/03/15 12:52:45;;;;;;;4.73;2.50;;;;;;;;;;5096396;22;20024;-67
2024/03/15 12:55:15;;;;;;;2.60;2.40;;;;;;;;;;5069611;28;20039;-67
2024/03/15 12:57:41;;;;;;;2.67;2.33;;;;;;;;;;5071339;28;20024;-69
2024/03/15 13:00:12;;;;;;;2.88;2.08;;;;;;;;;;5071420;28;20103;-67
2024/03/15 13:02:38;;;;;;;2.63;2.43;;;;;;;;;;5074369;28;20028;-68
2024/03/15 13:05:08;;;;;;;2.58;2.15;;;;;;;;;;5091718;28;20266;-68
2024/03/15 13:07:34;;;;;;;3.60;1.95;;;;;;;;;;5082471;28;20180;-68
2024/03/15 13:10:00;;;;;;;2.33;1.95;;;;;;;;;;5084090;28;20025;-67
2024/03/15 13:12:26;;;;;;;2.10;1.55;;;;;;;;;;5070859;28;20074;-67
2024/03/15 13:14:54;;;;;;;2.17;1.80;;;;;;;;;;5087896;28;20024;-67
2024/03/15 13:17:20;;;;;;;3.55;1.83;;;;;;;;;;5089423;28;20123;-68
2024/03/15 13:19:46;;;;;;;4.03;1.70;;;;;;;;;;5090453;28;20154;-66
2024/03/15 13:22:12;;;;;;;2.72;1.90;;;;;;;;;;5071459;28;20028;-69
2024/03/15 13:24:39;;;;;;;2.30;1.80;;;;;;;;;;5071703;28;20135;-68
2024/03/15 13:27:05;;;;;;;2.10;1.92;;;;;;;;;;5070966;28;20096;-68
2024/03/15 13:29:31;;;;;;;2.58;1.85;;;;;;;;;;5087794;28;20115;-68
2024/03/15 13:31:57;;;;;;;2.60;1.80;;;;;;;;;;5078806;28;20107;-68
2024/03/15 13:34:24;;;;;;;3.42;2.10;;;;;;;;;;5075590;28;20490;-67
2024/03/15 13:36:50;;;;;;;4.70;1.80;;;;;;;;;;5072409;28;20028;-67
2024/03/15 13:39:27;;;;;;;4.18;1.63;;;;;;;;;;5073899;28;20443;-68
2024/03/15 13:41:57;;;;;;;3.88;2.60;;;;;;;;;;5078257;28;20029;-66
2024/03/15 13:44:25;;;;;;;3.65;2.22;;;;;;;;;;5090800;28;20039;-67
2024/03/15 13:46:51;;;;;;;3.63;2.45;;;;;;;;;;5062454;28;20371;-68
2024/03/15 13:49:17;;;;;;;2.85;2.20;;;;;;;;;;5083218;28;20054;-71
2024/03/15 13:51:43;;;;;;;3.05;2.70;;;;;;;;;;5089531;28;20487;-67
2024/03/15 13:54:10;;;;;;;2.97;2.67;;;;;;;;;;5069489;28;20029;-67
2024/03/15 13:56:36;;;;;;;6.57;2.78;;;;;;;;;;5077638;28;20020;-67
2024/03/15 13:59:03;;;;;;;5.10;3.03;;;;;;;;;;5089607;28;20024;-67
2024/03/15 14:01:29;;;;;;;6.60;3.00;;;;;;;;;;5070114;28;20029;-66
2024/03/15 14:03:58;;;;;;;3.88;2.95;;;;;;;;;;5078295;28;20055;-67
2024/03/15 14:06:31;;;;;;;5.03;3.47;;;;;;;;;;5071851;28;20482;-67
2024/03/15 14:08:58;;;;;;;4.88;3.20;;;;;;;;;;5090380;28;20142;-68
2024/03/15 14:11:24;;;;;;;4.70;3.17;;;;;;;;;;5063273;28;20028;-66
2024/03/15 14:13:53;;;;;;;3.70;2.90;;;;;;;;;;5070015;28;20044;-66
2024/03/15 14:16:19;;;;;;;5.75;3.67;;;;;;;;;;5070337;28;20016;-67
2024/03/15 14:18:45;;;;;;;8.60;3.30;;;;;;;;;;5083174;28;20105;-66
2024/03/15 14:21:13;;;;;;;4.50;2.83;;;;;;;;;;5083500;28;20027;-66
2024/03/15 14:23:39;;;;;;;6.22;2.85;;;;;;;;;;5072695;28;20016;-66
2024/03/15 14:26:05;;;;;;;3.80;3.38;;;;;;;;;;5077059;28;20027;-65
2024/03/15 14:28:31;;;;;;;7.13;3.47;;;;;;;;;;5070550;28;20032;-66
2024/03/15 14:31:00;;;;;;;5.15;2.65;;;;;;;;;;5084445;28;20032;-71
2024/03/15 14:33:27;;;;;;;6.40;2.63;;;;;;;;;;5081304;28;20017;-71
2024/03/15 14:35:57;;;;;;;5.53;1.83;;;;;;;;;;5070034;28;20081;-68
2024/03/15 14:38:25;;;;;;;3.95;1.90;;;;;;;;;;5062426;28;20445;-67
2024/03/15 14:40:54;;;;;;;5.15;2.53;;;;;;;;;;5087923;28;20024;-67
2024/03/15 14:43:20;;;;;;;8.43;2.53;;;;;;;;;;5081161;28;20721;-67
2024/03/15 14:45:46;;;;;;;4.18;2.13;;;;;;;;;;5085623;28;20463;-65